createdAt,value
2017-10-09T00:00:25.467Z,8.33
2017-10-09T00:02:52.932Z,7.40
2017-10-09T00:05:20.549Z,7.63
2017-10-09T00:07:48.026Z,6.77
2017-10-09T00:10:15.490Z,8.10
2017-10-09T00:12:42.966Z,7.23
2017-10-09T00:15:10.435Z,8.33
2017-10-09T00:17:38.670Z,8.60
2017-10-09T00:20:06.141Z,9.93
2017-10-09T00:22:33.642Z,9.17
2017-10-09T00:25:01.104Z,8.27
2017-10-09T00:27:28.584Z,8.23
2017-10-09T00:29:56.056Z,8.10
2017-10-09T00:32:23.548Z,7.67
2017-10-09T00:34:51.013Z,6.37
2017-10-09T00:37:19.251Z,6.40
2017-10-09T00:39:46.781Z,5.60
2017-10-09T00:42:14.404Z,5.93
2017-10-09T00:44:42.631Z,6.23
2017-10-09T00:47:10.104Z,6.00
2017-10-09T00:49:37.626Z,5.80
2017-10-09T00:52:05.078Z,5.73
2017-10-09T00:54:32.568Z,6.97
2017-10-09T00:57:00.070Z,6.33
2017-10-09T00:59:28.301Z,6.03
2017-10-09T01:01:55.779Z,5.63
2017-10-09T01:04:23.255Z,6.70
2017-10-09T01:06:51.546Z,6.80
2017-10-09T01:09:19.009Z,6.50
2017-10-09T01:11:46.477Z,6.10
2017-10-09T01:14:13.957Z,6.57
2017-10-09T01:16:41.697Z,5.67
2017-10-09T01:19:09.164Z,5.93
2017-10-09T01:21:36.634Z,6.20
2017-10-09T01:24:04.208Z,6.20
2017-10-09T01:26:31.866Z,6.30
2017-10-09T01:28:59.328Z,6.27
2017-10-09T01:31:26.784Z,5.93
2017-10-09T01:33:54.317Z,5.83
2017-10-09T01:36:21.789Z,6.27
2017-10-09T01:38:49.278Z,5.87
2017-10-09T01:41:17.513Z,7.60
2017-10-09T01:43:44.993Z,6.87
2017-10-09T01:46:12.469Z,7.40
2017-10-09T01:48:40.697Z,7.50
2017-10-09T01:51:08.157Z,7.60
2017-10-09T01:53:35.625Z,7.10
2017-10-09T01:56:03.102Z,6.90
2017-10-09T01:58:30.652Z,6.80
2017-10-09T02:00:58.301Z,6.90
2017-10-09T02:03:25.768Z,7.00
2017-10-09T02:05:53.260Z,6.90
2017-10-09T02:08:21.493Z,6.50
2017-10-09T02:10:48.961Z,6.03
2017-10-09T02:13:16.649Z,6.57
2017-10-09T02:15:44.873Z,6.60
2017-10-09T02:18:12.368Z,7.30
2017-10-09T02:20:40.669Z,5.83
2017-10-09T02:23:08.140Z,6.47
2017-10-09T02:25:35.621Z,6.13
2017-10-09T02:28:03.088Z,6.03
2017-10-09T02:30:30.556Z,5.90
2017-10-09T02:32:58.015Z,6.00
2017-10-09T02:35:25.581Z,6.37
2017-10-09T02:37:53.037Z,6.73
2017-10-09T02:40:20.517Z,5.70
2017-10-09T02:42:48.747Z,7.17
2017-10-09T02:45:16.218Z,5.47
2017-10-09T02:47:43.697Z,5.33
2017-10-09T02:50:11.927Z,6.33
2017-10-09T02:52:39.401Z,6.33
2017-10-09T02:55:06.875Z,5.30
2017-10-09T02:57:34.436Z,5.97
2017-10-09T03:00:01.893Z,5.53
2017-10-09T03:02:30.118Z,6.00
2017-10-09T03:04:57.591Z,6.10
2017-10-09T03:07:25.045Z,5.40
2017-10-09T03:09:52.517Z,5.67
2017-10-09T03:12:19.980Z,5.73
2017-10-09T03:14:47.463Z,5.60
2017-10-09T03:17:15.689Z,5.70
2017-10-09T03:19:43.209Z,6.10
2017-10-09T03:22:16.332Z,5.97
2017-10-09T03:24:53.735Z,5.40
2017-10-09T03:27:23.878Z,5.27
2017-10-09T03:29:58.709Z,6.50
2017-10-09T03:32:26.255Z,5.53
2017-10-09T03:34:53.748Z,6.57
2017-10-09T03:37:21.220Z,5.90
2017-10-09T03:39:48.669Z,6.40
2017-10-09T03:42:16.176Z,6.73
2017-10-09T03:44:43.633Z,5.87
2017-10-09T03:47:11.357Z,5.70
2017-10-09T03:49:38.804Z,7.67
2017-10-09T03:52:06.286Z,7.30
2017-10-09T03:54:34.289Z,6.43
2017-10-09T03:57:01.766Z,7.30
2017-10-09T03:59:29.995Z,6.00
2017-10-09T04:01:57.449Z,5.70
2017-10-09T04:04:24.945Z,6.10
2017-10-09T04:06:53.178Z,7.30
2017-10-09T04:09:20.660Z,6.10
2017-10-09T04:11:48.125Z,5.53
2017-10-09T04:14:15.653Z,6.13
2017-10-09T04:16:43.193Z,7.10
2017-10-09T04:19:10.638Z,6.10
2017-10-09T04:21:38.151Z,5.30
2017-10-09T04:24:05.617Z,6.30
2017-10-09T04:26:33.882Z,6.30
2017-10-09T04:29:01.433Z,6.30
2017-10-09T04:31:28.914Z,5.50
2017-10-09T04:33:57.381Z,6.60
2017-10-09T04:36:25.621Z,5.97
2017-10-09T04:38:53.082Z,5.80
2017-10-09T04:41:20.540Z,5.80
2017-10-09T04:43:48.007Z,6.07
2017-10-09T04:46:15.479Z,5.73
2017-10-09T04:48:42.998Z,6.50
2017-10-09T04:51:10.479Z,5.80
2017-10-09T04:53:37.950Z,5.80
2017-10-09T04:56:05.431Z,6.80
2017-10-09T04:58:33.652Z,6.87
2017-10-09T05:01:01.130Z,5.77
2017-10-09T05:03:28.600Z,7.10
2017-10-09T05:05:56.098Z,6.13
2017-10-09T05:08:23.569Z,6.27
2017-10-09T05:10:51.032Z,6.40
2017-10-09T05:13:18.500Z,6.70
2017-10-09T05:15:45.976Z,7.20
2017-10-09T05:18:13.465Z,6.60
2017-10-09T05:20:41.840Z,7.73
2017-10-09T05:23:10.189Z,6.60
2017-10-09T05:25:37.686Z,7.00
2017-10-09T05:28:05.959Z,7.00
2017-10-09T05:30:34.198Z,7.67
2017-10-09T05:33:01.669Z,7.80
2017-10-09T05:35:29.136Z,7.10
2017-10-09T05:37:57.379Z,7.20
2017-10-09T05:40:24.862Z,7.40
2017-10-09T05:42:52.361Z,6.93
2017-10-09T05:45:19.820Z,7.13
2017-10-09T05:47:47.289Z,7.67
2017-10-09T05:50:14.795Z,7.00
2017-10-09T05:52:43.040Z,7.67
2017-10-09T05:55:10.517Z,7.90
2017-10-09T05:57:38.005Z,7.10
2017-10-09T06:00:05.484Z,6.90
2017-10-09T06:02:32.961Z,6.80
2017-10-09T06:05:00.424Z,7.03
2017-10-09T06:07:27.877Z,7.30
2017-10-09T06:09:55.353Z,6.83
2017-10-09T06:12:22.831Z,6.70
2017-10-09T06:14:51.063Z,6.50
2017-10-09T06:17:18.544Z,6.80
2017-10-09T06:19:46.013Z,6.93
2017-10-09T06:22:13.462Z,6.97
2017-10-09T06:24:41.705Z,6.57
2017-10-09T06:27:09.180Z,7.20
2017-10-09T06:29:36.664Z,7.20
2017-10-09T06:32:04.905Z,7.50
2017-10-09T06:34:32.369Z,8.17
2017-10-09T06:36:59.887Z,7.73
2017-10-09T06:39:27.349Z,7.07
2017-10-09T06:41:54.829Z,7.73
2017-10-09T06:44:22.311Z,8.00
2017-10-09T06:46:49.798Z,8.03
2017-10-09T06:49:17.257Z,8.43
2017-10-09T06:51:44.883Z,8.20
2017-10-09T06:54:12.353Z,8.00
2017-10-09T06:56:40.607Z,8.53
2017-10-09T06:59:08.290Z,7.70
2017-10-09T07:01:36.525Z,7.70
2017-10-09T07:04:03.986Z,7.13
2017-10-09T07:06:31.477Z,8.20
2017-10-09T07:08:59.750Z,8.87
2017-10-09T07:11:28.125Z,8.83
2017-10-09T07:13:55.606Z,8.80
2017-10-09T07:16:23.076Z,8.93
2017-10-09T07:18:50.554Z,8.17
2017-10-09T07:21:18.049Z,9.03
2017-10-09T07:23:46.165Z,8.40
2017-10-09T07:26:13.826Z,8.40
2017-10-09T07:28:41.324Z,9.00
2017-10-09T07:31:08.874Z,8.57
2017-10-09T07:33:36.372Z,8.97
2017-10-09T07:36:04.652Z,9.13
2017-10-09T07:38:32.132Z,8.20
2017-10-09T07:40:59.609Z,8.83
2017-10-09T07:43:27.089Z,9.23
2017-10-09T07:45:54.819Z,9.63
2017-10-09T07:48:22.301Z,9.77
2017-10-09T07:50:50.396Z,9.90
2017-10-09T07:53:17.857Z,8.60
2017-10-09T07:55:46.161Z,6.97
2017-10-09T07:58:13.639Z,5.90
2017-10-09T08:00:41.970Z,6.20
2017-10-09T08:03:10.220Z,6.57
2017-10-09T08:05:37.864Z,7.20
2017-10-09T08:08:05.337Z,6.90
2017-10-09T08:10:34.121Z,5.60
2017-10-09T08:13:01.588Z,6.77
2017-10-09T08:15:29.741Z,3.97
2017-10-09T08:17:57.201Z,2.50
2017-10-09T08:20:24.677Z,2.80
2017-10-09T08:22:52.136Z,2.47
2017-10-09T08:25:21.214Z,2.50
2017-10-09T08:27:48.743Z,3.30
2017-10-09T08:30:16.358Z,4.23
2017-10-09T08:32:43.865Z,5.27
2017-10-09T08:35:11.349Z,5.37
2017-10-09T08:37:38.825Z,5.63
2017-10-09T08:40:06.302Z,7.07
2017-10-09T08:42:34.553Z,7.07
2017-10-09T08:45:03.536Z,7.03
2017-10-09T08:47:31.009Z,8.13
2017-10-09T08:49:58.492Z,6.53
2017-10-09T08:52:26.024Z,7.27
2017-10-09T08:54:53.498Z,5.80
2017-10-09T08:57:21.747Z,4.43
2017-10-09T08:59:49.229Z,4.13
2017-10-09T09:02:17.496Z,3.67
2017-10-09T09:04:45.733Z,3.60
2017-10-09T09:07:13.273Z,5.00
2017-10-09T09:09:40.733Z,5.37
2017-10-09T09:12:08.209Z,5.60
2017-10-09T09:14:35.697Z,8.07
2017-10-09T09:17:03.932Z,8.20
2017-10-09T09:19:31.520Z,8.23
2017-10-09T09:21:59.003Z,8.33
2017-10-09T09:24:27.237Z,7.67
2017-10-09T09:26:54.690Z,7.20
2017-10-09T09:29:22.160Z,7.73
2017-10-09T09:31:49.621Z,8.17
2017-10-09T09:34:17.097Z,8.50
2017-10-09T09:36:45.349Z,9.73
2017-10-09T09:39:13.601Z,10.20
2017-10-09T09:41:41.083Z,9.60
2017-10-09T09:44:08.557Z,10.47
2017-10-09T09:46:36.812Z,11.13
2017-10-09T09:49:04.389Z,11.53
2017-10-09T09:51:32.619Z,10.80
2017-10-09T09:54:00.092Z,10.93
2017-10-09T09:56:27.568Z,13.63
2017-10-09T09:58:55.798Z,11.00
2017-10-09T10:01:23.291Z,11.90
2017-10-09T10:03:50.760Z,12.33
2017-10-09T10:06:19.013Z,13.07
2017-10-09T10:08:46.493Z,13.80
2017-10-09T10:11:13.953Z,14.00
2017-10-09T10:13:42.339Z,14.00
2017-10-09T10:16:10.602Z,14.83
2017-10-09T10:18:38.085Z,14.70
2017-10-09T10:21:05.567Z,14.97
2017-10-09T10:23:33.025Z,17.07
2017-10-09T10:26:00.679Z,16.00
2017-10-09T10:28:28.144Z,18.03
2017-10-09T10:30:55.640Z,17.50
2017-10-09T10:33:23.918Z,19.30
2017-10-09T10:35:51.381Z,16.77
2017-10-09T10:38:19.608Z,17.43
2017-10-09T10:40:47.090Z,19.37
2017-10-09T10:43:14.549Z,18.47
2017-10-09T10:45:42.148Z,17.57
2017-10-09T10:48:11.198Z,19.57
2017-10-09T10:50:38.673Z,19.77
2017-10-09T10:53:06.125Z,19.33
2017-10-09T10:55:33.612Z,21.60
2017-10-09T10:58:01.851Z,18.43
2017-10-09T11:00:30.100Z,19.60
2017-10-09T11:02:57.656Z,20.70
2017-10-09T11:05:25.239Z,21.27
2017-10-09T11:07:52.705Z,21.80
2017-10-09T11:10:20.197Z,21.60
2017-10-09T11:12:48.553Z,21.90
2017-10-09T11:15:16.021Z,22.00
2017-10-09T11:17:44.593Z,22.07
2017-10-09T11:20:12.040Z,23.47
2017-10-09T11:22:39.512Z,22.80
2017-10-09T11:25:07.745Z,22.53
2017-10-09T11:27:35.218Z,22.70
2017-10-09T11:30:03.590Z,21.40
2017-10-09T11:32:31.056Z,23.70
2017-10-09T11:34:58.581Z,22.20
2017-10-09T11:37:26.048Z,20.97
2017-10-09T11:39:53.516Z,20.40
2017-10-09T11:42:20.972Z,22.87
2017-10-09T11:44:48.457Z,19.90
2017-10-09T11:47:16.737Z,21.93
2017-10-09T11:49:44.964Z,20.40
2017-10-09T11:52:12.446Z,20.30
2017-10-09T11:54:39.922Z,20.30
2017-10-09T11:57:08.173Z,20.87
2017-10-09T11:59:35.817Z,20.93
2017-10-09T12:02:03.288Z,20.87
2017-10-09T12:04:30.764Z,21.70
2017-10-09T12:06:58.996Z,19.70
2017-10-09T12:09:26.486Z,19.70
2017-10-09T12:11:53.963Z,21.00
2017-10-09T12:14:21.416Z,21.40
2017-10-09T12:16:49.029Z,19.87
2017-10-09T12:19:16.488Z,20.07
2017-10-09T12:21:43.952Z,18.77
2017-10-09T12:24:11.454Z,19.30
2017-10-09T12:26:38.921Z,19.23
2017-10-09T12:29:08.980Z,18.70
2017-10-09T12:31:36.527Z,20.00
2017-10-09T12:34:04.002Z,18.40
2017-10-09T12:36:32.168Z,19.07
2017-10-09T12:39:12.089Z,18.97
2017-10-09T12:41:39.569Z,17.17
2017-10-09T12:44:07.058Z,19.37
2017-10-09T12:46:34.586Z,18.80
2017-10-09T12:49:02.046Z,17.23
2017-10-09T12:51:29.551Z,19.40
2017-10-09T12:53:57.011Z,18.00
2017-10-09T12:56:25.912Z,17.93
2017-10-09T12:58:54.165Z,17.57
2017-10-09T13:01:21.638Z,18.73
2017-10-09T13:03:49.889Z,17.60
2017-10-09T13:06:17.371Z,19.53
2017-10-09T13:08:45.621Z,18.63
2017-10-09T13:11:13.094Z,18.90
2017-10-09T13:13:40.573Z,20.97
2017-10-09T13:16:08.057Z,18.80
2017-10-09T13:18:35.543Z,21.80
2017-10-09T13:21:03.035Z,19.50
2017-10-09T13:23:31.289Z,19.67
2017-10-09T13:25:58.796Z,19.70
2017-10-09T13:28:26.283Z,20.13
2017-10-09T13:30:53.756Z,20.10
2017-10-09T13:33:22.856Z,20.40
2017-10-09T13:35:50.336Z,20.17
2017-10-09T13:38:18.588Z,19.47
2017-10-09T13:40:46.082Z,20.00
2017-10-09T13:43:14.312Z,19.07
2017-10-09T13:45:41.788Z,17.70
2017-10-09T13:48:10.307Z,18.53
2017-10-09T13:50:37.775Z,19.90
2017-10-09T13:53:05.832Z,19.80
2017-10-09T13:55:34.065Z,20.03
2017-10-09T13:58:01.530Z,18.73
2017-10-09T14:00:30.366Z,20.57
2017-10-09T14:02:57.862Z,20.67
2017-10-09T14:05:25.408Z,19.60
2017-10-09T14:07:52.982Z,18.70
2017-10-09T14:10:20.475Z,19.00
2017-10-09T14:12:48.716Z,20.97
2017-10-09T14:15:16.195Z,19.93
2017-10-09T14:17:44.461Z,21.10
2017-10-09T14:20:12.690Z,20.53
2017-10-09T14:22:40.180Z,22.00
2017-10-09T14:25:07.657Z,20.87
2017-10-09T14:27:35.916Z,20.67
2017-10-09T14:30:03.573Z,20.17
2017-10-09T14:39:54.734Z,19.20
2017-10-09T14:42:22.209Z,18.90
2017-10-09T14:44:50.471Z,18.50
2017-10-09T14:47:18.736Z,19.17
2017-10-09T14:49:46.213Z,19.90
2017-10-09T14:52:14.465Z,19.47
2017-10-09T14:54:41.925Z,19.60
2017-10-09T14:57:09.427Z,18.00
2017-10-09T14:59:37.002Z,18.73
2017-10-09T15:02:05.077Z,19.10
2017-10-09T15:04:32.550Z,19.83
2017-10-09T15:07:00.014Z,21.80
2017-10-09T15:09:27.490Z,18.00
2017-10-09T15:11:55.758Z,19.87
2017-10-09T15:14:23.247Z,18.40
2017-10-09T15:16:50.711Z,20.83
2017-10-09T15:19:18.189Z,20.20
2017-10-09T15:21:45.654Z,19.97
2017-10-09T15:24:13.130Z,19.70
2017-10-09T15:26:40.625Z,19.70
2017-10-09T15:29:08.877Z,19.80
2017-10-09T15:31:36.347Z,18.17
2017-10-09T15:34:04.591Z,22.00
2017-10-09T15:36:32.085Z,18.80
2017-10-09T15:39:00.314Z,18.00
2017-10-09T15:41:27.990Z,18.80
2017-10-09T15:43:55.623Z,17.93
2017-10-09T15:46:23.222Z,19.97
2017-10-09T15:48:50.708Z,21.07
2017-10-09T15:51:18.189Z,18.73
2017-10-09T15:53:45.661Z,19.60
2017-10-09T15:56:13.141Z,16.70
2017-10-09T15:58:40.617Z,17.33
2017-10-09T16:01:08.885Z,17.53
2017-10-09T16:03:36.366Z,18.57
2017-10-09T16:06:03.872Z,18.20
2017-10-09T16:08:31.346Z,18.50
2017-10-09T16:10:58.863Z,18.77
2017-10-09T16:13:26.328Z,18.93
2017-10-09T16:15:53.865Z,20.10
2017-10-09T16:18:21.337Z,20.00
2017-10-09T16:20:48.809Z,21.17
2017-10-09T16:23:16.271Z,19.83
2017-10-09T16:25:43.745Z,19.27
2017-10-09T16:28:11.212Z,18.90
2017-10-09T16:30:38.940Z,18.20
2017-10-09T16:33:06.413Z,20.43
2017-10-09T16:35:33.883Z,19.03
2017-10-09T16:38:01.363Z,19.33
2017-10-09T16:40:29.617Z,19.20
2017-10-09T16:42:57.101Z,19.40
2017-10-09T16:45:25.942Z,18.70
2017-10-09T16:47:53.413Z,19.20
2017-10-09T16:50:20.889Z,20.53
2017-10-09T16:52:49.861Z,19.57
2017-10-09T16:55:17.371Z,20.57
2017-10-09T16:57:45.455Z,19.20
2017-10-09T17:00:12.934Z,19.17
2017-10-09T17:02:40.397Z,19.83
2017-10-09T17:05:07.874Z,20.40
2017-10-09T17:07:35.366Z,20.10
2017-10-09T17:10:03.542Z,19.87
2017-10-09T17:12:31.026Z,18.60
2017-10-09T17:14:58.510Z,19.63
2017-10-09T17:17:25.988Z,20.63
2017-10-09T17:19:54.218Z,18.47
2017-10-09T17:22:21.836Z,19.83
2017-10-09T17:24:50.072Z,20.37
2017-10-09T17:27:17.542Z,18.93
2017-10-09T17:29:45.021Z,19.37
2017-10-09T17:32:13.266Z,20.37
2017-10-09T17:34:40.742Z,19.60
2017-10-09T17:37:08.977Z,19.30
2017-10-09T17:39:36.529Z,18.90
2017-10-09T17:42:04.010Z,19.43
2017-10-09T17:44:33.021Z,18.70
2017-10-09T17:47:01.268Z,17.90
2017-10-09T17:49:28.734Z,19.13
2017-10-09T17:51:56.216Z,18.53
2017-10-09T17:54:24.454Z,17.40
2017-10-09T17:56:51.941Z,19.10
2017-10-09T17:59:19.496Z,15.87
2017-10-09T18:01:46.999Z,19.60
2017-10-09T18:04:14.475Z,17.73
2017-10-09T18:06:41.999Z,17.07
2017-10-09T18:09:09.470Z,17.60
2017-10-09T18:11:36.948Z,18.80
2017-10-09T18:14:04.459Z,18.07
2017-10-09T18:16:32.682Z,16.20
2017-10-09T18:19:00.168Z,15.97
2017-10-09T18:21:27.629Z,16.70
2017-10-09T18:23:55.184Z,18.10
2017-10-09T18:26:23.524Z,16.97
2017-10-09T18:28:50.985Z,17.20
2017-10-09T18:31:18.526Z,16.87
2017-10-09T18:33:45.984Z,16.97
2017-10-09T18:36:13.481Z,15.67
2017-10-09T18:38:40.942Z,15.73
2017-10-09T18:41:08.545Z,14.43
2017-10-09T18:43:36.010Z,14.80
2017-10-09T18:46:03.523Z,14.70
2017-10-09T18:48:31.050Z,16.37
2017-10-09T18:50:59.410Z,13.67
2017-10-09T18:53:26.916Z,14.60
2017-10-09T18:55:55.380Z,14.40
2017-10-09T18:58:22.857Z,14.03
2017-10-09T19:00:51.160Z,14.80
2017-10-09T19:03:18.670Z,14.60
2017-10-09T19:05:46.133Z,14.83
2017-10-09T19:08:13.610Z,13.80
2017-10-09T19:10:41.861Z,13.93
2017-10-09T19:13:09.329Z,15.40
2017-10-09T19:15:36.841Z,14.97
2017-10-09T19:18:04.324Z,14.10
2017-10-09T19:20:31.811Z,16.20
2017-10-09T19:22:59.318Z,14.27
2017-10-09T19:25:26.785Z,14.20
2017-10-09T19:27:54.474Z,13.50
2017-10-09T19:30:21.941Z,14.60
2017-10-09T19:32:49.447Z,15.17
2017-10-09T19:35:16.917Z,14.73
2017-10-09T19:37:44.421Z,14.67
2017-10-09T19:40:11.880Z,14.63
2017-10-09T19:42:40.157Z,13.80
2017-10-09T19:45:09.000Z,13.90
2017-10-09T19:47:36.599Z,15.30
2017-10-09T19:50:04.084Z,15.40
2017-10-09T19:52:31.565Z,15.97
2017-10-09T19:54:59.092Z,16.27
2017-10-09T19:57:27.364Z,14.23
2017-10-09T19:59:55.917Z,14.53
2017-10-09T20:02:23.400Z,15.10
2017-10-09T20:04:51.757Z,15.60
2017-10-09T20:07:20.699Z,15.83
2017-10-09T20:09:48.171Z,14.80
2017-10-09T20:12:15.652Z,15.10
2017-10-09T20:14:43.114Z,15.83
2017-10-09T20:17:12.098Z,16.87
2017-10-09T20:19:40.390Z,15.03
2017-10-09T20:22:10.741Z,16.50
2017-10-09T20:24:38.982Z,16.83
2017-10-09T20:27:06.541Z,17.13
2017-10-09T20:29:34.031Z,16.20
2017-10-09T20:32:02.473Z,16.33
2017-10-09T20:34:30.713Z,15.50
2017-10-09T20:36:59.148Z,15.80
2017-10-09T20:39:27.390Z,16.60
2017-10-09T20:41:54.857Z,15.40
2017-10-09T20:44:23.101Z,16.13
2017-10-09T20:46:50.584Z,14.50
2017-10-09T20:49:18.056Z,15.80
2017-10-09T20:51:45.555Z,15.53
2017-10-09T20:54:13.045Z,15.60
2017-10-09T20:56:40.534Z,15.50
2017-10-09T20:59:08.889Z,14.73
2017-10-09T21:01:36.354Z,15.47
2017-10-09T21:04:03.833Z,15.20
2017-10-09T21:06:32.077Z,15.80
2017-10-09T21:08:59.553Z,15.20
2017-10-09T21:11:27.793Z,15.50
2017-10-09T21:13:55.337Z,15.30
2017-10-09T21:16:23.009Z,14.40
2017-10-09T21:18:50.469Z,14.80
2017-10-09T21:21:17.949Z,14.20
2017-10-09T21:23:45.424Z,16.87
2017-10-09T21:26:13.661Z,14.30
2017-10-09T21:28:41.143Z,15.93
2017-10-09T21:31:08.606Z,15.83
2017-10-09T21:33:36.846Z,16.03
2017-10-09T21:36:04.505Z,17.10
2017-10-09T21:38:31.976Z,16.00
2017-10-09T21:40:59.453Z,16.43
2017-10-09T21:43:26.973Z,16.00
2017-10-09T21:45:54.448Z,17.33
2017-10-09T21:48:21.983Z,15.53
2017-10-09T21:50:49.441Z,15.97
2017-10-09T21:53:16.915Z,16.23
2017-10-09T21:55:44.389Z,15.23
2017-10-09T21:58:11.873Z,15.33
2017-10-09T22:00:40.122Z,15.60
2017-10-09T22:03:07.592Z,16.60
2017-10-09T22:05:35.060Z,14.73
2017-10-09T22:08:03.298Z,15.67
2017-10-09T22:10:30.977Z,16.03
2017-10-09T22:12:58.445Z,15.20
2017-10-09T22:15:26.682Z,14.33
2017-10-09T22:17:54.266Z,14.63
2017-10-09T22:20:21.772Z,15.00
2017-10-09T22:22:49.249Z,14.80
2017-10-09T22:25:16.848Z,15.93
2017-10-09T22:27:45.122Z,13.97
2017-10-09T22:30:12.601Z,14.83
2017-10-09T22:32:40.847Z,14.83
2017-10-09T22:35:08.313Z,14.30
2017-10-09T22:37:36.560Z,13.70
2017-10-09T22:40:04.034Z,13.13
2017-10-09T22:42:31.656Z,13.33
2017-10-09T22:44:59.364Z,13.90
2017-10-09T22:47:26.866Z,12.83
2017-10-09T22:49:54.344Z,12.07
2017-10-09T22:52:21.832Z,12.70
2017-10-09T22:54:49.299Z,12.20
2017-10-09T22:57:16.947Z,12.30
2017-10-09T22:59:44.409Z,12.13
2017-10-09T23:02:11.887Z,12.23
2017-10-09T23:04:40.139Z,11.40
2017-10-09T23:07:07.599Z,10.80
2017-10-09T23:09:35.073Z,10.33
2017-10-09T23:12:03.317Z,11.90
2017-10-09T23:14:30.809Z,10.50
2017-10-09T23:16:59.118Z,11.03
2017-10-09T23:19:26.606Z,9.77
2017-10-09T23:21:54.057Z,10.63
2017-10-09T23:24:21.533Z,9.53
2017-10-09T23:26:49.005Z,9.03
2017-10-09T23:29:16.470Z,9.90
2017-10-09T23:31:44.720Z,9.70
2017-10-09T23:34:12.181Z,8.93
2017-10-09T23:36:39.653Z,9.37
2017-10-09T23:39:07.884Z,8.53
2017-10-09T23:41:35.370Z,7.97
2017-10-09T23:44:02.844Z,9.43
2017-10-09T23:46:31.076Z,7.97
2017-10-09T23:48:58.557Z,8.77
2017-10-09T23:51:26.857Z,8.47
2017-10-09T23:53:55.097Z,7.73
2017-10-09T23:56:22.790Z,7.67
2017-10-09T23:58:51.002Z,7.63
